Saipan, Northern Mariana Islands
Current Conditions -  °F | °C
As of 11:54 PM on Thursday 23 Oct 2014 (Local Time) from PGSN Reporting Station
Scattered Clouds Scattered Clouds  
Wind Chill: 81°   Ceiling: Unl
Heat Index: 88°   Visibility: 10mi
Dew Point: 77°   Wind: 5mph
Humidity: 88%   Direction: 130°SE
Pressure: 29.87"   Gusts: NA
Location:  15.13°N, 145.7°E
Report Text: PGSN 231354Z 13004KT 10SM SCT015 27/25 A2987 RMK AO2 SLP137 T02720250 403170256
Loading
Personal Weather Stations






























Interactive Weather Map
Tropical Storm Tracking
New forecast layout! Learn more

10-Day Weather Forecast

Advertisements
Track Severe Weather on mobile